Time;durP1;ratioP1;P1;durP2;ratioP2;P2;SDS_P1;SDS_P2;PMS_P1;PMS_P2;Temp;Humidity;BMP_temperature;BMP_pressure;BME280_temperature;BME280_humidity;BME280_pressure;Samples;Min_cycle;Max_cycle;Signal;HPM_P1;HPM_P2
2022/02/28 00:01:33;;;;;;;;;5.00;5.00;;;;;20.23;32.56;102344.94;5066127;28;51110;-54
2022/02/28 00:03:58;;;;;;;;;6.00;6.00;;;;;20.19;32.61;102345.28;5059979;28;51359;-53
2022/02/28 00:06:24;;;;;;;;;8.25;8.00;;;;;20.18;32.20;102353.72;5062247;28;51185;-52
2022/02/28 00:08:50;;;;;;;;;6.50;4.50;;;;;20.16;32.35;102348.41;5059815;28;53192;-51
2022/02/28 00:11:16;;;;;;;;;5.75;5.75;;;;;20.13;32.50;102345.19;5059065;28;51453;-53
2022/02/28 00:13:41;;;;;;;;;3.75;3.75;;;;;20.14;32.50;102349.66;5064171;28;51064;-54
2022/02/28 00:16:07;;;;;;;;;7.25;5.25;;;;;20.11;32.59;102342.63;5058725;28;51154;-51
2022/02/28 00:18:33;;;;;;;;;7.75;6.00;;;;;20.11;32.81;102356.38;5063205;28;51287;-52
2022/02/28 00:20:59;;;;;;;;;6.75;6.75;;;;;20.10;32.87;102362.88;5078079;28;51280;-54
2022/02/28 00:23:25;;;;;;;;;7.00;6.00;;;;;20.08;32.70;102364.97;5073717;28;51115;-53
2022/02/28 00:25:50;;;;;;;;;6.00;6.00;;;;;20.07;32.92;102365.16;5066110;28;51528;-53
2022/02/28 00:28:16;;;;;;;;;4.50;4.50;;;;;20.04;32.59;102369.13;5070431;28;51717;-52
2022/02/28 00:30:41;;;;;;;;;6.75;6.00;;;;;20.03;32.78;102378.44;5095707;27;51086;-52
2022/02/28 00:33:07;;;;;;;;;5.00;4.50;;;;;20.01;32.81;102371.38;5090326;27;51582;-51
2022/02/28 00:35:33;;;;;;;;;5.25;5.00;;;;;19.99;32.71;102371.56;5076803;28;51411;-53
2022/02/28 00:37:58;;;;;;;;;5.25;4.75;;;;;19.97;33.01;102370.91;5077680;28;52378;-53
2022/02/28 00:40:24;;;;;;;;;4.00;3.50;;;;;19.96;32.79;102371.09;5076052;28;51070;-52
2022/02/28 00:42:49;;;;;;;;;5.25;5.25;;;;;19.94;32.99;102375.91;5078683;28;51042;-52
2022/02/28 00:45:15;;;;;;;;;5.00;5.00;;;;;19.93;32.77;102374.22;5078166;28;51363;-51
2022/02/28 00:47:40;;;;;;;;;6.00;6.00;;;;;19.92;32.61;102372.50;5058805;28;51968;-52
2022/02/28 00:50:09;;;;;;;;;6.25;4.75;;;;;19.91;32.58;102370.78;5077846;28;51056;-52
2022/02/28 00:52:34;;;;;;;;;6.00;6.00;;;;;19.88;32.69;102367.34;5078113;28;51125;-49
2022/02/28 00:55:00;;;;;;;;;4.00;4.00;;;;;19.88;32.90;102374.72;5078478;28;51218;-52
2022/02/28 00:57:25;;;;;;;;;3.75;3.75;;;;;19.87;32.55;102373.88;5059628;28;51888;-53
2022/02/28 00:59:51;;;;;;;;;6.00;5.00;;;;;19.86;32.57;102372.16;5058775;28;50987;-49
2022/02/28 01:02:16;;;;;;;;;4.50;4.00;;;;;19.83;32.96;102375.28;5057514;28;51093;-53
2022/02/28 01:04:42;;;;;;;;;9.25;5.75;;;;;19.83;32.95;102375.28;5065068;28;50938;-53
2022/02/28 01:07:08;;;;;;;;;4.25;4.25;;;;;19.81;32.78;102384.78;5060754;28;51844;-51
2022/02/28 01:09:33;;;;;;;;;4.25;4.00;;;;;19.79;32.76;102379.44;5058558;28;51806;-51
2022/02/28 01:12:01;;;;;;;;;4.75;4.75;;;;;19.78;32.95;102394.22;5057747;28;51231;-51
2022/02/28 01:14:26;;;;;;;;;4.25;3.75;;;;;19.77;32.82;102384.25;5057975;28;51121;-51
2022/02/28 01:16:52;;;;;;;;;4.25;4.25;;;;;19.76;32.97;102392.69;5057154;28;51145;-53
2022/02/28 01:19:17;;;;;;;;;6.00;5.00;;;;;19.74;32.88;102390.13;5067811;28;51096;-54
2022/02/28 01:21:42;;;;;;;;;5.75;4.75;;;;;19.74;32.67;102390.13;5077693;28;51223;-53
2022/02/28 01:24:08;;;;;;;;;6.75;4.75;;;;;19.72;32.64;102388.59;5078013;28;51241;-51
2022/02/28 01:26:34;;;;;;;;;4.00;3.25;;;;;19.71;33.13;102390.50;5064893;28;51144;-51
2022/02/28 01:28:59;;;;;;;;;6.00;6.00;;;;;19.69;32.95;102378.78;5066046;27;51304;-49
2022/02/28 01:31:25;;;;;;;;;6.00;4.50;;;;;19.69;32.55;102380.69;5078255;27;51491;-49
2022/02/28 01:33:50;;;;;;;;;6.25;4.00;;;;;19.68;32.87;102384.47;5062193;28;50946;-53
2022/02/28 01:36:15;;;;;;;;;7.00;4.50;;;;;19.66;32.59;102381.91;5073574;28;51963;-51
2022/02/28 01:38:41;;;;;;;;;3.75;3.75;;;;;19.65;32.85;102390.34;5077031;28;51202;-52
2022/02/28 01:41:06;;;;;;;;;3.75;3.50;;;;;19.64;32.76;102383.13;5075793;28;51601;-52
2022/02/28 01:43:31;;;;;;;;;7.25;5.25;;;;;19.62;32.78;102391.56;5077207;28;51367;-51
2022/02/28 01:45:57;;;;;;;;;4.25;4.00;;;;;19.60;32.70;102386.25;5069864;28;50975;-53
2022/02/28 01:48:22;;;;;;;;;4.25;3.00;;;;;19.60;32.64;102382.66;5056918;28;51033;-52
2022/02/28 01:50:48;;;;;;;;;3.25;3.25;;;;;19.58;32.72;102382.81;5091449;27;51529;-54
2022/02/28 01:53:13;;;;;;;;;3.75;3.75;;;;;19.57;32.72;102375.59;5077629;28;51569;-52
2022/02/28 01:55:38;;;;;;;;;2.50;2.50;;;;;19.57;32.72;102377.50;5072778;28;52127;-54
2022/02/28 01:58:04;;;;;;;;;5.50;5.00;;;;;19.55;32.68;102374.03;5056783;28;50975;-52
2022/02/28 02:00:31;;;;;;;;;7.50;5.00;;;;;19.53;32.82;102371.47;5070076;28;51181;-52
2022/02/28 02:02:57;;;;;;;;;6.00;5.00;;;;;19.53;32.68;102374.22;5077085;28;51412;-52
2022/02/28 02:05:23;;;;;;;;;4.00;4.00;;;;;19.52;32.89;102368.91;5063611;28;51963;-51
2022/02/28 02:07:49;;;;;;;;;3.50;3.00;;;;;19.51;32.77;102368.06;5077199;28;51138;-50
2022/02/28 02:10:16;;;;;;;;;3.25;3.00;;;;;19.49;33.05;102359.13;5069109;28;51136;-51
2022/02/28 02:12:42;;;;;;;;;4.75;4.75;;;;;19.49;32.59;102372.03;5056901;28;51003;-52
2022/02/28 02:15:10;;;;;;;;;6.00;4.00;;;;;19.48;32.78;102362.03;5058660;28;51101;-50
2022/02/28 02:17:36;;;;;;;;;4.25;3.50;;;;;19.47;32.77;102365.81;5076533;28;51126;-48
2022/02/28 02:20:29;;;;;;;;;5.25;5.25;;;;;19.46;32.99;102362.22;5068059;28;51186;-52
2022/02/28 02:22:55;;;;;;;;;4.00;4.00;;;;;19.44;32.87;102367.03;5057073;27;51188;-53
2022/02/28 02:25:21;;;;;;;;;3.00;3.00;;;;;19.44;32.86;102357.94;5061473;28;51834;-52
2022/02/28 02:27:46;;;;;;;;;3.00;3.00;;;;;19.42;32.97;102363.63;5076878;27;51106;-52
2022/02/28 02:30:13;;;;;;;;;4.75;3.25;;;;;19.42;32.80;102365.53;5083427;27;51380;-52
2022/02/28 02:32:38;;;;;;;;;4.25;4.25;;;;;19.40;32.81;102360.22;5076592;28;51090;-53
2022/02/28 02:35:04;;;;;;;;;3.00;3.00;;;;;19.39;32.74;102363.13;5070429;28;51374;-51
2022/02/28 02:37:30;;;;;;;;;4.00;3.25;;;;;19.38;32.82;102356.75;5071256;28;51083;-52
2022/02/28 02:39:55;;;;;;;;;4.75;4.00;;;;;19.38;32.79;102359.50;5076522;27;51144;-52
2022/02/28 02:42:20;;;;;;;;;4.75;3.75;;;;;19.36;32.69;102367.06;5076749;27;51239;-51
2022/02/28 02:44:46;;;;;;;;;4.50;4.50;;;;;19.36;32.69;102364.31;5075327;27;50940;-52
2022/02/28 02:47:11;;;;;;;;;6.00;4.25;;;;;19.36;32.77;102366.22;5068611;28;51355;-53
2022/02/28 02:49:36;;;;;;;;;3.25;3.25;;;;;19.33;32.92;102360.06;5056712;28;51104;-54
2022/02/28 02:52:02;;;;;;;;;3.25;2.50;;;;;19.33;32.77;102357.31;5076371;27;51100;-51
2022/02/28 02:54:27;;;;;;;;;4.50;4.50;;;;;19.32;32.89;102361.09;5074173;28;50906;-53
2022/02/28 02:56:52;;;;;;;;;5.00;4.00;;;;;19.31;32.74;102356.63;5075159;28;51022;-52
2022/02/28 02:59:18;;;;;;;;;5.50;3.25;;;;;19.31;32.77;102358.53;5076471;27;50979;-50
2022/02/28 03:01:43;;;;;;;;;3.75;3.75;;;;;19.29;32.53;102355.09;5076578;27;51077;-54
2022/02/28 03:04:08;;;;;;;;;3.50;3.50;;;;;19.29;32.71;102352.34;5067348;27;52144;-52
2022/02/28 03:06:35;;;;;;;;;3.75;3.75;;;;;19.28;32.78;102356.13;5060129;28;51112;-53
2022/02/28 03:09:00;;;;;;;;;5.00;4.00;;;;;19.26;32.86;102348.06;5056153;28;51398;-49
2022/02/28 03:11:25;;;;;;;;;2.50;2.50;;;;;19.25;32.75;102351.84;5055948;28;51040;-51
2022/02/28 03:13:51;;;;;;;;;3.75;3.50;;;;;19.25;32.63;102356.47;5055528;28;51020;-53
2022/02/28 03:16:17;;;;;;;;;4.00;4.00;;;;;19.24;32.76;102360.25;5063079;28;51167;-52
2022/02/28 03:18:42;;;;;;;;;4.75;4.00;;;;;19.24;32.82;102365.75;5075958;27;51160;-51
2022/02/28 03:21:07;;;;;;;;;4.50;2.50;;;;;19.22;32.88;102354.94;5066186;27;51073;-53
2022/02/28 03:23:33;;;;;;;;;3.25;2.00;;;;;19.21;32.59;102358.72;5055769;28;51082;-52
2022/02/28 03:25:59;;;;;;;;;3.50;3.00;;;;;19.20;32.76;102351.53;5056029;28;51182;-49
2022/02/28 03:28:25;;;;;;;;;2.25;2.25;;;;;19.20;32.92;102356.16;5075496;28;51116;-53
2022/02/28 03:30:50;;;;;;;;;2.00;2.00;;;;;19.19;32.84;102354.47;5095792;27;51091;-52
2022/02/28 03:33:16;;;;;;;;;4.50;4.50;;;;;19.19;32.78;102354.47;5095915;27;51177;-49
2022/02/28 03:35:41;;;;;;;;;3.00;3.00;;;;;19.17;32.69;102351.00;5078212;27;51103;-52
2022/02/28 03:38:07;;;;;;;;;3.25;2.00;;;;;19.15;32.72;102348.44;5058649;28;51148;-55
2022/02/28 03:40:33;;;;;;;;;3.00;3.00;;;;;19.15;32.68;102347.59;5055706;28;51155;-54
2022/02/28 03:43:01;;;;;;;;;2.75;2.75;;;;;19.14;32.71;102360.47;5055618;28;51056;-51
2022/02/28 03:45:27;;;;;;;;;3.25;3.25;;;;;19.13;32.71;102346.91;5063740;28;51164;-52
2022/02/28 03:47:52;;;;;;;;;3.00;3.00;;;;;19.13;32.76;102346.91;5056815;27;51326;-49
2022/02/28 03:50:18;;;;;;;;;4.25;4.25;;;;;19.11;32.70;102348.97;5055885;28;51101;-52
2022/02/28 03:52:43;;;;;;;;;4.00;2.00;;;;;19.11;32.63;102341.59;5074475;28;51941;-51
2022/02/28 03:55:11;;;;;;;;;2.75;1.00;;;;;19.10;32.95;102336.28;5070488;28;51142;-53
2022/02/28 03:57:36;;;;;;;;;3.75;2.75;;;;;19.09;32.75;102340.94;5069148;28;51057;-52
2022/02/28 04:00:03;;;;;;;;;5.00;4.00;;;;;19.08;32.82;102339.22;5078773;27;51135;-53
2022/02/28 04:02:29;;;;;;;;;1.00;1.00;;;;;19.08;32.75;102341.97;5078766;28;51152;-50
2022/02/28 04:04:54;;;;;;;;;2.50;2.50;;;;;19.07;32.52;102343.00;5072332;28;51120;-51
2022/02/28 04:07:19;;;;;;;;;4.50;2.50;;;;;19.06;32.76;102337.66;5058599;28;51143;-49
2022/02/28 04:09:45;;;;;;;;;2.50;2.25;;;;;19.06;32.65;102334.91;5059134;28;51140;-49
2022/02/28 04:12:10;;;;;;;;;3.00;3.00;;;;;19.04;32.71;102344.19;5058537;28;52122;-52
2022/02/28 04:14:37;;;;;;;;;4.25;2.00;;;;;19.03;32.84;102342.47;5064068;28;51163;-52
2022/02/28 04:17:03;;;;;;;;;4.75;2.75;;;;;19.03;32.60;102344.38;5071304;28;51199;-52
2022/02/28 04:19:28;;;;;;;;;3.25;3.00;;;;;19.02;32.73;102349.00;5058712;28;51138;-54
2022/02/28 04:21:53;;;;;;;;;4.25;4.25;;;;;19.02;32.78;102350.91;5065325;28;51077;-50
2022/02/28 04:24:19;;;;;;;;;2.00;2.00;;;;;19.00;32.79;102345.59;5074886;27;51114;-50
2022/02/28 04:26:44;;;;;;;;;3.00;2.00;;;;;19.00;32.83;102352.97;5058640;28;51219;-49
2022/02/28 04:29:10;;;;;;;;;2.50;2.50;;;;;18.99;32.70;102348.50;5083597;27;51381;-53
2022/02/28 04:31:35;;;;;;;;;2.75;2.00;;;;;18.97;32.79;102354.19;5098277;27;51632;-53
2022/02/28 04:34:01;;;;;;;;;3.00;3.00;;;;;18.96;32.69;102365.31;5097013;27;51160;-52
2022/02/28 04:36:26;;;;;;;;;4.00;2.25;;;;;18.96;32.68;102357.94;5077365;28;51134;-52
2022/02/28 04:38:51;;;;;;;;;4.25;4.25;;;;;18.96;32.89;102359.81;5078774;27;51060;-53
2022/02/28 04:41:17;;;;;;;;;4.00;3.00;;;;;18.95;32.85;102363.59;5078309;27;51724;-54
2022/02/28 04:43:42;;;;;;;;;4.75;4.00;;;;;18.94;32.80;102360.00;5078444;27;51135;-54
2022/02/28 04:46:07;;;;;;;;;2.00;2.00;;;;;18.92;32.70;102359.34;5059658;27;51001;-52
2022/02/28 04:48:33;;;;;;;;;2.75;2.75;;;;;18.92;32.66;102358.47;5073223;28;51150;-53
2022/02/28 04:50:58;;;;;;;;;3.00;2.00;;;;;18.91;32.59;102357.63;5078350;27;51239;-53
2022/02/28 04:53:26;;;;;;;;;2.00;2.00;;;;;18.91;32.64;102356.75;5062239;27;51096;-53
2022/02/28 04:55:52;;;;;;;;;6.00;4.00;;;;;18.89;32.54;102356.09;5072650;28;51156;-53
2022/02/28 04:58:18;;;;;;;;;3.75;3.00;;;;;18.88;32.65;102352.50;5069638;28;51034;-52
2022/02/28 05:00:43;;;;;;;;;3.00;3.00;;;;;18.89;32.50;102358.84;5057342;28;51754;-53
2022/02/28 05:03:09;;;;;;;;;3.00;2.50;;;;;18.87;32.68;102360.91;5058183;28;51145;-53
2022/02/28 05:05:34;;;;;;;;;3.25;3.25;;;;;18.86;32.63;102361.91;5070061;28;51065;-53
2022/02/28 05:08:00;;;;;;;;;4.00;3.75;;;;;18.85;32.67;102365.69;5067610;28;51016;-51
2022/02/28 05:10:25;;;;;;;;;3.50;3.00;;;;;18.84;32.80;102370.31;5057654;28;51791;-54
2022/02/28 05:12:50;;;;;;;;;3.00;2.50;;;;;18.84;32.55;102369.47;5057736;28;51061;-55
2022/02/28 05:15:16;;;;;;;;;3.50;2.75;;;;;18.83;32.78;102376.00;5067536;28;51235;-54
2022/02/28 05:17:41;;;;;;;;;3.75;3.75;;;;;18.82;32.64;102377.88;5073344;28;51144;-53
2022/02/28 05:20:07;;;;;;;;;3.00;3.00;;;;;18.81;32.80;102373.44;5057584;28;51769;-53
2022/02/28 05:22:32;;;;;;;;;2.00;2.00;;;;;18.81;32.83;102375.31;5075837;28;51124;-51
2022/02/28 05:24:58;;;;;;;;;2.75;2.00;;;;;18.80;32.54;102379.97;5070009;28;51115;-51
2022/02/28 05:27:23;;;;;;;;;2.00;2.00;;;;;18.80;32.45;102381.84;5057858;28;51213;-53
2022/02/28 05:29:48;;;;;;;;;4.00;2.00;;;;;18.79;32.64;102383.72;5087207;27;50944;-52
2022/02/28 05:32:14;;;;;;;;;4.00;3.50;;;;;18.79;32.73;102380.13;5097795;27;51051;-56
2022/02/28 05:34:39;;;;;;;;;2.75;2.75;;;;;18.78;32.54;102386.66;5091885;27;51071;-52
2022/02/28 05:37:04;;;;;;;;;3.00;3.00;;;;;18.78;32.65;102383.91;5077810;28;50956;-50
2022/02/28 05:39:30;;;;;;;;;4.75;3.25;;;;;18.78;32.63;102381.16;5058204;28;51762;-52
2022/02/28 05:41:55;;;;;;;;;4.25;2.00;;;;;18.77;32.57;102384.94;5057220;28;51084;-53
2022/02/28 05:44:20;;;;;;;;;4.00;3.25;;;;;18.75;32.66;102382.34;5061528;28;51065;-52
2022/02/28 05:46:46;;;;;;;;;3.25;3.25;;;;;18.74;32.87;102380.63;5076945;28;51142;-52
2022/02/28 05:49:12;;;;;;;;;3.00;3.00;;;;;18.73;32.72;102382.53;5075302;28;51865;-51
2022/02/28 05:51:37;;;;;;;;;3.00;3.00;;;;;18.71;32.44;102379.09;5077394;28;51338;-50
2022/02/28 05:54:04;;;;;;;;;4.50;4.00;;;;;18.72;32.68;102386.31;5066226;28;51056;-53
2022/02/28 05:56:29;;;;;;;;;4.00;4.00;;;;;18.71;32.69;102386.47;5077746;28;51112;-51
2022/02/28 05:58:55;;;;;;;;;6.00;3.50;;;;;18.70;32.63;102390.25;5075178;28;51764;-50
2022/02/28 06:01:21;;;;;;;;;3.00;2.00;;;;;18.70;32.55;102406.72;5076854;28;51464;-48
2022/02/28 06:03:46;;;;;;;;;8.00;5.50;;;;;18.70;31.66;102417.72;5077696;28;51377;-47
2022/02/28 06:06:11;;;;;;;;;11.50;9.00;;;;;18.69;31.23;102416.00;5057079;28;51330;-51
2022/02/28 06:08:37;;;;;;;;;13.00;11.75;;;;;18.67;30.60;102426.31;5063556;28;52128;-50
2022/02/28 06:11:03;;;;;;;;;15.75;11.00;;;;;18.64;29.96;102426.59;5076948;28;51038;-51
2022/02/28 06:13:28;;;;;;;;;12.25;10.75;;;;;18.61;29.86;102421.47;5077345;28;51094;-52
2022/02/28 06:15:53;;;;;;;;;9.00;7.75;;;;;18.56;29.80;102421.13;5071704;28;51229;-50
2022/02/28 06:18:19;;;;;;;;;12.75;10.00;;;;;18.50;29.33;102421.78;5056129;28;53586;-49
2022/02/28 06:20:44;;;;;;;;;9.75;9.75;;;;;18.44;29.16;102415.97;5056526;28;51155;-47
2022/02/28 06:23:14;;;;;;;;;14.00;8.50;;;;;18.39;28.85;102417.50;5057242;28;51117;-49
2022/02/28 06:25:41;;;;;;;;;12.25;7.75;;;;;18.32;28.79;102414.56;5057906;28;51254;-50
2022/02/28 06:28:07;;;;;;;;;9.00;8.25;;;;;18.29;29.03;102411.31;5056877;28;51005;-54
2022/02/28 06:30:32;;;;;;;;;13.25;8.50;;;;;18.29;29.44;102408.59;5058135;27;51103;-48
2022/02/28 06:32:57;;;;;;;;;7.50;6.75;;;;;18.34;29.30;102415.28;5059816;28;51331;-53
2022/02/28 06:35:23;;;;;;;;;9.25;7.00;;;;;18.41;29.45;102407.22;5057931;28;51128;-50
2022/02/28 06:37:48;;;;;;;;;8.75;6.50;;;;;18.49;29.36;102414.59;5066080;28;51835;-54
2022/02/28 06:40:14;;;;;;;;;5.00;4.75;;;;;18.55;29.67;102409.28;5068155;28;50996;-53
2022/02/28 06:42:40;;;;;;;;;6.50;6.00;;;;;18.63;29.93;102411.16;5055653;28;51055;-53
2022/02/28 06:45:06;;;;;;;;;5.25;5.25;;;;;18.71;29.84;102419.44;5060937;28;51428;-53
2022/02/28 06:47:32;;;;;;;;;7.25;5.75;;;;;18.78;29.92;102420.47;5063235;28;53767;-51
2022/02/28 06:49:57;;;;;;;;;5.50;5.50;;;;;18.86;29.92;102425.06;5056217;28;51084;-51
2022/02/28 06:52:26;;;;;;;;;5.00;4.00;;;;;18.94;30.04;102430.53;5061621;28;51028;-51
2022/02/28 06:54:54;;;;;;;;;6.25;5.75;;;;;19.01;30.32;102432.44;5064036;27;51412;-52
2022/02/28 06:57:20;;;;;;;;;4.75;4.00;;;;;19.09;30.82;102427.97;5060061;28;51853;-52
2022/02/28 06:59:46;;;;;;;;;5.25;4.00;;;;;19.17;30.92;102436.16;5056513;28;51152;-50
2022/02/28 07:02:11;;;;;;;;;3.00;3.00;;;;;19.25;30.84;102436.16;5063570;27;51054;-52
2022/02/28 07:04:36;;;;;;;;;6.25;4.75;;;;;19.33;30.84;102441.63;5061108;27;51064;-52
2022/02/28 07:07:02;;;;;;;;;5.25;5.25;;;;;19.39;30.58;102434.59;5066966;27;51030;-51
2022/02/28 07:09:29;;;;;;;;;4.00;4.00;;;;;19.46;30.60;102447.41;5064606;28;51450;-51
2022/02/28 07:11:54;;;;;;;;;5.50;4.75;;;;;19.53;30.44;102439.34;5055981;28;51341;-52
2022/02/28 07:14:19;;;;;;;;;5.25;5.00;;;;;19.60;30.52;102435.72;5055210;28;51249;-51
2022/02/28 07:16:45;;;;;;;;;6.00;4.00;;;;;19.67;30.34;102435.84;5054409;28;51145;-48
2022/02/28 07:19:10;;;;;;;;;6.00;4.00;;;;;19.74;30.38;102438.75;5069842;28;51239;-50
2022/02/28 07:21:35;;;;;;;;;6.25;5.25;;;;;19.81;30.28;102439.75;5055541;28;51008;-50
2022/02/28 07:24:01;;;;;;;;;6.50;5.75;;;;;19.87;30.32;102431.63;5071093;28;51315;-48
2022/02/28 07:26:29;;;;;;;;;5.50;5.00;;;;;19.95;29.92;102438.13;5054911;28;51675;-51
2022/02/28 07:28:55;;;;;;;;;5.50;5.50;;;;;19.99;30.32;102423.81;5066765;27;50953;-51
2022/02/28 07:31:20;;;;;;;;;5.00;4.75;;;;;20.04;30.04;102426.91;5081494;27;51148;-50
2022/02/28 07:33:46;;;;;;;;;7.50;5.00;;;;;20.06;30.02;102438.59;5059413;28;51152;-47
2022/02/28 07:36:12;;;;;;;;;3.50;3.50;;;;;20.06;30.34;102443.22;5058258;28;51585;-49
2022/02/28 07:38:39;;;;;;;;;5.75;5.00;;;;;20.05;30.19;102436.00;5060083;28;51168;-53
2022/02/28 07:41:05;;;;;;;;;6.75;4.75;;;;;20.01;30.61;102446.53;5063989;28;51100;-52
2022/02/28 07:43:30;;;;;;;;;6.25;5.75;;;;;19.97;30.46;102450.66;5092499;27;51319;-51
2022/02/28 07:45:55;;;;;;;;;6.00;4.00;;;;;19.93;30.43;102456.72;5059623;28;51199;-52
2022/02/28 07:48:21;;;;;;;;;7.00;6.00;;;;;19.88;30.24;102460.00;5065083;27;51000;-49
2022/02/28 07:50:46;;;;;;;;;4.25;3.75;;;;;19.84;30.30;102464.16;5074462;27;51445;-52
2022/02/28 07:53:11;;;;;;;;;6.50;5.25;;;;;19.80;30.44;102462.78;5071066;27;51170;-52
2022/02/28 07:55:37;;;;;;;;;5.25;3.75;;;;;19.75;30.31;102462.47;5076275;27;52543;-50
2022/02/28 07:58:02;;;;;;;;;4.00;4.00;;;;;19.72;30.51;102468.34;5096364;27;51333;-52
2022/02/28 08:00:27;;;;;;;;;4.00;3.00;;;;;19.67;30.48;102466.09;5098828;27;51082;-51
2022/02/28 08:02:53;;;;;;;;;5.75;4.75;;;;;19.62;30.54;102474.03;5098715;27;51131;-52
2022/02/28 08:05:18;;;;;;;;;5.00;3.75;;;;;19.58;30.52;102481.75;5077670;27;51853;-49
2022/02/28 08:07:44;;;;;;;;;6.00;5.00;;;;;19.55;30.54;102473.00;5076408;27;50965;-50
2022/02/28 08:10:09;;;;;;;;;3.75;3.00;;;;;19.50;30.72;102468.03;5074579;27;52320;-50
2022/02/28 08:12:35;;;;;;;;;7.50;6.00;;;;;19.46;30.81;102458.41;5058162;28;51048;-52
2022/02/28 08:15:01;;;;;;;;;3.75;3.00;;;;;19.43;30.46;102461.53;5060668;28;52156;-47
2022/02/28 08:17:26;;;;;;;;;3.50;3.50;;;;;19.39;30.59;102456.56;5063997;28;51259;-50
2022/02/28 08:19:52;;;;;;;;;3.00;3.00;;;;;19.36;30.79;102451.41;5073211;28;51336;-53
2022/02/28 08:22:17;;;;;;;;;4.75;4.00;;;;;19.32;30.66;102445.41;5057983;28;51235;-49
2022/02/28 08:24:42;;;;;;;;;5.50;4.75;;;;;19.29;30.72;102443.88;5057849;28;51657;-50
2022/02/28 08:27:08;;;;;;;;;3.00;3.00;;;;;19.26;30.67;102441.47;5064585;28;51130;-51
2022/02/28 08:29:33;;;;;;;;;5.50;4.50;;;;;19.23;30.97;102447.31;5087384;27;51351;-52
2022/02/28 08:31:58;;;;;;;;;4.25;4.25;;;;;19.21;30.78;102438.41;5060649;27;51171;-47
2022/02/28 08:34:24;;;;;;;;;5.00;5.00;;;;;19.18;30.99;102432.41;5057385;28;51080;-50
2022/02/28 08:36:49;;;;;;;;;4.00;4.00;;;;;19.14;30.89;102429.13;5067775;28;51143;-53
2022/02/28 08:39:14;;;;;;;;;4.50;4.50;;;;;19.13;30.56;102430.16;5066513;28;51352;-50
2022/02/28 08:41:40;;;;;;;;;5.50;4.50;;;;;19.11;31.12;102435.00;5071126;28;51039;-52
2022/02/28 08:44:07;;;;;;;;;6.00;3.50;;;;;19.09;30.85;102447.19;5077295;28;51872;-50
2022/02/28 08:46:35;;;;;;;;;6.00;6.00;;;;;19.06;31.01;102444.78;5094160;27;50944;-48
2022/02/28 08:49:00;;;;;;;;;5.50;5.50;;;;;19.05;31.11;102432.94;5089666;27;51231;-50
2022/02/28 08:51:26;;;;;;;;;5.00;5.00;;;;;19.03;31.11;102441.34;5067433;28;51251;-50
2022/02/28 08:53:51;;;;;;;;;4.00;4.00;;;;;19.02;31.09;102436.88;5071837;28;51909;-52
2022/02/28 08:56:16;;;;;;;;;5.75;5.25;;;;;19.01;31.09;102437.94;5063040;28;51128;-52
2022/02/28 08:58:41;;;;;;;;;13.00;8.25;;;;;18.99;31.02;102431.75;5057051;28;51247;-53
2022/02/28 09:01:07;;;;;;;;;5.00;5.00;;;;;18.98;31.06;102430.03;5058029;28;51903;-52
2022/02/28 09:03:32;;;;;;;;;7.50;4.75;;;;;18.97;31.24;102439.31;5070012;28;51781;-49
2022/02/28 09:05:57;;;;;;;;;4.75;4.75;;;;;18.96;31.17;102434.81;5057396;28;51202;-52
2022/02/28 09:08:23;;;;;;;;;4.50;4.50;;;;;18.95;31.26;102435.84;5057343;28;51032;-52
2022/02/28 09:10:48;;;;;;;;;6.25;5.00;;;;;18.95;31.27;102432.25;5060592;28;51073;-51
2022/02/28 09:13:13;;;;;;;;;4.00;4.00;;;;;18.92;31.21;102427.97;5064929;28;51341;-53
2022/02/28 09:15:39;;;;;;;;;7.25;5.25;;;;;18.92;31.33;102429.88;5057871;28;51433;-52
2022/02/28 09:18:07;;;;;;;;;4.00;4.00;;;;;18.91;31.36;102422.66;5056842;28;51066;-52
2022/02/28 09:20:34;;;;;;;;;5.25;4.00;;;;;18.91;31.32;102430.91;5056467;28;51286;-52
2022/02/28 09:22:59;;;;;;;;;6.75;4.75;;;;;18.90;31.22;102441.03;5057523;28;51153;-50
2022/02/28 09:25:25;;;;;;;;;5.50;5.50;;;;;18.90;31.40;102446.53;5063063;28;50927;-51
2022/02/28 09:27:51;;;;;;;;;6.25;4.75;;;;;18.93;31.16;102459.03;5056217;28;51132;-51
2022/02/28 09:30:17;;;;;;;;;6.75;5.00;;;;;18.95;31.00;102460.56;5087104;27;51068;-50
2022/02/28 09:32:42;;;;;;;;;4.75;3.50;;;;;18.97;31.24;102458.53;5096536;27;52228;-52
2022/02/28 09:35:08;;;;;;;;;6.75;5.50;;;;;18.99;31.17;102456.47;5089313;27;51119;-54
2022/02/28 09:37:33;;;;;;;;;6.25;5.00;;;;;19.02;31.20;102456.13;5062344;28;51037;-51
2022/02/28 09:39:59;;;;;;;;;3.00;2.00;;;;;19.05;31.11;102454.91;5056542;28;51116;-49
2022/02/28 09:42:25;;;;;;;;;7.00;5.75;;;;;19.07;31.16;102462.97;5057348;28;51686;-51
2022/02/28 09:44:51;;;;;;;;;6.50;5.50;;;;;19.10;30.96;102468.13;5062109;27;51388;-52
2022/02/28 09:47:18;;;;;;;;;4.50;4.50;;;;;19.13;30.87;102467.78;5068755;27;51263;-52
2022/02/28 09:49:44;;;;;;;;;5.75;5.00;;;;;19.15;31.25;102472.06;5063212;28;51108;-53
2022/02/28 09:52:09;;;;;;;;;5.00;5.00;;;;;19.19;31.25;102476.19;5056024;28;50955;-51
2022/02/28 09:54:35;;;;;;;;;5.50;5.25;;;;;19.22;30.99;102470.34;5055500;28;51055;-55
2022/02/28 09:57:01;;;;;;;;;6.75;4.75;;;;;19.24;31.04;102471.00;5055973;28;51104;-51
2022/02/28 09:59:26;;;;;;;;;6.00;5.00;;;;;19.27;31.03;102462.41;5056118;28;51106;-53
2022/02/28 10:01:52;;;;;;;;;8.50;6.00;;;;;19.30;30.82;102463.97;5068320;28;52792;-48
2022/02/28 10:04:17;;;;;;;;;7.00;6.00;;;;;19.33;30.94;102464.47;5075432;28;51140;-48
2022/02/28 10:06:44;;;;;;;;;5.25;5.25;;;;;19.34;30.78;102465.31;5064476;28;51310;-52
2022/02/28 10:09:16;;;;;;;;;6.00;6.00;;;;;19.36;30.75;102460.50;5055900;28;51331;-53
2022/02/28 10:11:43;;;;;;;;;7.00;5.00;;;;;19.38;30.58;102465.81;5056308;28;51978;-52
2022/02/28 10:14:11;;;;;;;;;4.00;4.00;;;;;19.40;30.83;102450.03;5055587;28;51379;-53
2022/02/28 10:16:36;;;;;;;;;6.75;5.25;;;;;19.40;30.71;102453.63;5065125;28;51079;-51
2022/02/28 10:19:05;;;;;;;;;5.50;5.50;;;;;19.43;30.73;102453.28;5075864;28;51326;-52
2022/02/28 10:21:40;;;;;;;;;7.00;5.25;;;;;19.45;30.83;102458.59;5070289;28;52148;-54
2022/02/28 10:24:11;;;;;;;;;8.25;7.00;;;;;19.47;30.73;102456.53;5074097;28;51406;-51
2022/02/28 10:26:58;;;;;;;;;8.00;5.50;;;;;19.47;30.48;102468.38;5066743;28;51024;-53
2022/02/28 10:29:29;;;;;;;;;6.50;6.25;;;;;19.49;30.49;102468.22;5082584;27;51223;-53
2022/02/28 10:32:06;;;;;;;;;5.75;4.50;;;;;19.51;30.45;102466.16;5092649;27;51272;-53
2022/02/28 10:37:20;;;;;;;;;6.00;6.00;;;;;19.52;30.71;102474.22;5073198;28;51076;-52
2022/02/28 10:39:57;;;;;;;;;5.50;5.25;;;;;19.54;30.64;102480.38;5075738;28;51394;-53
2022/02/28 10:42:24;;;;;;;;;8.00;6.50;;;;;19.56;30.41;102485.72;5073374;28;52272;-53
2022/02/28 10:45:36;;;;;;;;;4.00;4.00;;;;;19.56;30.55;102481.09;5076165;27;51466;-50
2022/02/28 10:48:01;;;;;;;;;8.50;5.75;;;;;19.57;30.55;102468.19;5055068;28;51692;-51
2022/02/28 10:50:41;;;;;;;;;7.25;6.00;;;;;19.58;30.59;102470.75;5055164;28;51184;-49
2022/02/28 10:53:14;;;;;;;;;7.75;4.25;;;;;19.58;30.25;102459.78;5055505;28;51854;-47
2022/02/28 10:55:40;;;;;;;;;2.25;2.25;;;;;19.61;30.62;102464.09;5060600;28;51401;-53
2022/02/28 10:58:12;;;;;;;;;7.50;6.75;;;;;19.62;30.25;102464.94;5073410;28;51124;-53
2022/02/28 11:01:03;;;;;;;;;6.00;6.00;;;;;19.63;30.47;102463.91;5075210;28;51175;-52
2022/02/28 11:03:49;;;;;;;;;5.25;5.25;;;;;19.65;30.46;102470.06;5071985;28;52717;-52
2022/02/28 11:06:24;;;;;;;;;6.00;5.25;;;;;19.65;30.37;102470.94;5054820;28;51463;-54
2022/02/28 11:08:51;;;;;;;;;6.25;6.00;;;;;19.65;30.10;102473.66;5054979;28;51114;-53
2022/02/28 11:11:17;;;;;;;;;5.50;5.50;;;;;19.65;30.08;102476.41;5055111;28;51162;-52
2022/02/28 11:13:43;;;;;;;;;6.75;6.50;;;;;19.66;30.38;102469.88;5058528;28;52247;-53
2022/02/28 11:16:09;;;;;;;;;9.00;5.00;;;;;19.65;30.19;102467.31;5061080;28;51345;-51
2022/02/28 11:18:37;;;;;;;;;7.00;7.00;;;;;19.66;30.61;102472.63;5056036;28;51204;-53
2022/02/28 11:21:02;;;;;;;;;6.00;6.00;;;;;19.65;30.15;102470.94;5054452;28;51468;-52
2022/02/28 11:23:28;;;;;;;;;6.25;5.25;;;;;19.65;30.24;102461.81;5054361;28;51840;-51